Time;durP1;ratioP1;P1;durP2;ratioP2;P2;SDS_P1;SDS_P2;PMS_P1;PMS_P2;Temp;Humidity;BMP_temperature;BMP_pressure;BME280_temperature;BME280_humidity;BME280_pressure;Samples;Min_cycle;Max_cycle;Signal;HPM_P1;HPM_P2
2023/03/12 00:01:44;;;;;;;7.37;2.80;;;;;;;-0.09;100.00;99796.14;5062154;56;1136888;-67
2023/03/12 00:06:50;;;;;;;4.20;2.87;;;;;;;-0.14;100.00;99792.89;5004227;56;1136854;-73
2023/03/12 00:11:56;;;;;;;5.77;2.77;;;;;;;-0.18;100.00;99795.27;4952507;57;1136763;-69
2023/03/12 00:17:01;;;;;;;11.30;2.60;;;;;;;-0.20;100.00;99788.00;4968935;57;1136789;-68
2023/03/12 00:22:07;;;;;;;7.33;2.73;;;;;;;-0.20;100.00;99795.79;4965318;56;1145814;-69
2023/03/12 00:27:15;;;;;;;3.83;1.97;;;;;;;-0.19;100.00;99794.88;5073046;56;1136765;-68
2023/03/12 00:32:22;;;;;;;10.13;2.93;;;;;;;-0.20;100.00;99803.59;5066975;56;1136904;-69
2023/03/12 00:37:28;;;;;;;4.27;2.60;;;;;;;-0.19;100.00;99816.97;4989158;57;1138967;-67
2023/03/12 00:42:34;;;;;;;4.50;1.72;;;;;;;-0.17;100.00;99810.80;5047455;57;1136987;-70
2023/03/12 00:47:40;;;;;;;9.00;3.50;;;;;;;-0.13;100.00;99812.77;4897871;57;1136893;-72
2023/03/12 00:52:48;;;;;;;9.17;2.73;;;;;;;-0.09;100.00;99806.08;4905022;58;1136960;-71
2023/03/12 00:57:54;;;;;;;6.53;2.50;;;;;;;-0.04;100.00;99805.88;4930093;57;1136979;-67
2023/03/12 01:02:59;;;;;;;11.23;2.60;;;;;;;-0.01;100.00;99816.14;4937567;57;1136862;-69
2023/03/12 01:08:07;;;;;;;10.68;2.35;;;;;;;0.04;100.00;99811.55;5089793;56;1138911;-69
2023/03/12 01:13:13;;;;;;;7.35;2.60;;;;;;;0.08;100.00;99814.87;5027123;56;1136915;-69
2023/03/12 01:18:19;;;;;;;4.23;2.13;;;;;;;0.11;100.00;99812.13;4946826;57;1134755;-69
2023/03/12 01:23:25;;;;;;;7.27;3.00;;;;;;;0.11;100.00;99803.03;5099886;55;1134804;-67
2023/03/12 01:28:31;;;;;;;14.07;2.47;;;;;;;0.12;100.00;99804.72;5172148;56;1134853;-69
2023/03/12 01:33:37;;;;;;;6.40;1.50;;;;;;;0.12;100.00;99812.06;5089834;55;1136929;-72
2023/03/12 01:38:43;;;;;;;5.43;1.80;;;;;;;0.11;100.00;99797.83;5065566;56;1135149;-71
2023/03/12 01:43:49;;;;;;;5.90;1.63;;;;;;;0.10;100.00;99794.84;5086537;56;1134740;-70
2023/03/12 01:49:32;;;;;;;4.67;2.10;;;;;;;0.08;100.00;99800.56;5067004;56;1134894;-72
2023/03/12 01:54:59;;;;;;;2.80;1.72;;;;;;;0.11;100.00;99800.44;5066855;56;1134653;-71
2023/03/12 02:00:18;;;;;;;9.00;2.50;;;;;;;0.13;100.00;99799.91;5067027;56;1134746;-74
2023/03/12 02:05:42;;;;;;;3.80;1.67;;;;;;;0.16;100.00;99794.54;5066625;56;1134785;-70
2023/03/12 02:10:47;;;;;;;5.10;2.20;;;;;;;0.20;100.00;99798.69;5086464;56;1134795;-70
2023/03/12 02:15:52;;;;;;;4.70;1.52;;;;;;;0.23;100.00;99803.30;5145758;55;1134709;-72
2023/03/12 02:21:24;;;;;;;3.65;2.10;;;;;;;0.25;100.00;99796.27;5109480;56;1135182;-68
2023/03/12 02:26:32;;;;;;;6.93;2.40;;;;;;;0.28;100.00;99805.70;4987089;57;1134735;-71
2023/03/12 02:31:48;;;;;;;2.53;1.20;;;;;;;0.30;100.00;99810.37;5147709;55;1134883;-73
2023/03/12 02:36:55;;;;;;;3.97;3.10;;;;;;;0.30;100.00;99810.37;5152158;56;1134727;-69
2023/03/12 02:42:01;;;;;;;3.43;2.00;;;;;;;0.33;100.00;99809.75;5152590;55;1134738;-68
2023/03/12 02:47:07;;;;;;;4.45;1.87;;;;;;;0.35;100.00;99805.32;5172651;55;1134898;-69
2023/03/12 02:52:13;;;;;;;4.58;2.52;;;;;;;0.33;100.00;99813.64;5172749;55;1134900;-67
2023/03/12 02:57:20;;;;;;;2.77;1.60;;;;;;;0.33;100.00;99811.05;5152878;55;1134688;-67
2023/03/12 03:02:27;;;;;;;2.87;1.53;;;;;;;0.34;100.00;99812.73;5152435;55;1135028;-69
2023/03/12 03:07:34;;;;;;;3.40;2.37;;;;;;;0.37;100.00;99817.41;5172047;55;1134657;-71
2023/03/12 03:12:40;;;;;;;1.52;1.42;;;;;;;0.38;100.00;99830.80;5053431;56;1134896;-69
2023/03/12 03:17:46;;;;;;;2.70;1.67;;;;;;;0.35;100.00;99836.53;5100174;56;1134865;-69
2023/03/12 03:22:52;;;;;;;4.72;2.02;;;;;;;0.38;100.00;99843.81;5158723;55;1134796;-74
2023/03/12 03:27:58;;;;;;;7.00;2.40;;;;;;;0.37;100.00;99847.32;5152818;55;1135086;-72
2023/03/12 03:33:04;;;;;;;8.57;1.90;;;;;;;0.37;100.00;99847.32;5152454;55;1134769;-74
2023/03/12 03:38:09;;;;;;;7.80;3.17;;;;;;;0.41;100.00;99859.28;5004013;57;1134658;-71
2023/03/12 03:43:15;;;;;;;4.27;1.97;;;;;;;0.36;100.00;99864.69;5152392;55;1134834;-68
2023/03/12 03:48:23;;;;;;;3.93;2.00;;;;;;;0.32;100.00;99871.78;4994206;57;1134824;-69
2023/03/12 03:53:29;;;;;;;7.63;1.70;;;;;;;0.28;100.00;99875.91;5172505;55;1134626;-71
2023/03/12 03:58:35;;;;;;;5.10;1.63;;;;;;;0.27;100.00;99882.02;5152353;55;1135279;-69
2023/03/12 04:03:41;;;;;;;7.53;2.33;;;;;;;0.28;100.00;99886.31;4998805;57;1135286;-72
2023/03/12 04:08:47;;;;;;;7.23;1.90;;;;;;;0.29;100.00;99901.85;5172402;55;1134696;-68
2023/03/12 04:13:54;;;;;;;3.00;2.07;;;;;;;0.29;100.00;99887.55;5078906;56;1134958;-69
2023/03/12 04:19:02;;;;;;;2.00;1.90;;;;;;;0.30;100.00;99900.09;5073392;56;1134736;-72
2023/03/12 04:24:12;;;;;;;4.70;1.35;;;;;;;0.29;100.00;99904.45;5152470;55;1134821;-72
2023/03/12 04:29:19;;;;;;;2.00;1.90;;;;;;;0.27;100.00;99914.53;5172432;55;1134736;-69
2023/03/12 04:34:25;;;;;;;4.07;1.43;;;;;;;0.23;100.00;99919.47;4993161;57;1134733;-74
2023/03/12 04:39:32;;;;;;;9.65;1.92;;;;;;;0.20;100.00;99922.20;5172295;55;1134847;-73
2023/03/12 04:44:39;;;;;;;4.00;1.57;;;;;;;0.15;100.00;99928.93;5030735;57;1134927;-70
2023/03/12 04:49:46;;;;;;;2.93;1.57;;;;;;;0.13;100.00;99939.85;5121523;55;1134696;-72
2023/03/12 04:54:52;;;;;;;3.30;1.60;;;;;;;0.10;100.00;99949.53;5152154;55;1134604;-74
2023/03/12 04:59:59;;;;;;;2.95;1.45;;;;;;;0.09;100.00;99950.44;5153480;55;1134953;-70
2023/03/12 05:05:06;;;;;;;4.63;1.30;;;;;;;0.00;100.00;99948.62;5160682;55;1134913;-72
2023/03/12 05:10:12;;;;;;;7.80;1.10;;;;;;;-0.04;100.00;99960.08;5143775;56;1134628;-73
2023/03/12 05:15:19;;;;;;;6.17;0.80;;;;;;;-0.08;100.00;99964.17;5067179;56;1136845;-68
2023/03/12 05:20:25;;;;;;;3.07;1.20;;;;;;;-0.11;100.00;99979.44;5117019;56;1136654;-68
2023/03/12 05:25:31;;;;;;;1.80;1.00;;;;;;;-0.13;100.00;99991.64;5152144;55;1136914;-67
2023/03/12 05:30:39;;;;;;;8.57;1.20;;;;;;;-0.13;100.00;99996.84;5152525;55;1136729;-70
2023/03/12 05:35:45;;;;;;;0.85;0.80;;;;;;;-0.16;100.00;100002.20;5172305;55;1136699;-68
2023/03/12 05:41:03;;;;;;;6.17;1.37;;;;;;;-0.15;100.00;100018.15;5152531;55;1138750;-71
2023/03/12 05:46:06;;;;;;;4.93;1.30;;;;;;;-0.16;100.00;100026.89;5149349;55;1138934;-71
2023/03/12 05:51:13;;;;;;;2.30;1.10;;;;;;;-0.13;100.00;100033.23;5108345;55;1138926;-71
2023/03/12 05:56:19;;;;;;;5.77;1.50;;;;;;;-0.13;100.00;100033.23;5169795;55;1138858;-72
2023/03/12 06:01:28;;;;;;;11.00;3.03;;;;;;;-0.09;100.00;100036.55;5066342;56;1138730;-68
2023/03/12 06:06:37;;;;;;;2.73;1.30;;;;;;;-0.05;100.00;100045.92;5066090;56;1140896;-66
2023/03/12 06:11:44;;;;;;;4.43;1.37;;;;;;;0.02;100.00;100043.89;5086367;56;1139071;-71
2023/03/12 06:16:50;;;;;;;7.50;1.70;;;;;;;0.12;100.00;100055.61;5066874;56;1136887;-69
2023/03/12 06:21:58;;;;;;;7.07;1.60;;;;;;;0.21;100.00;100053.45;5095632;55;1136742;-70
2023/03/12 06:27:05;;;;;;;4.00;1.53;;;;;;;0.30;100.00;100056.98;5067640;56;1136908;-71
2023/03/12 06:32:11;;;;;;;6.73;1.97;;;;;;;0.40;100.00;100055.28;5087048;56;1136728;-71
2023/03/12 06:37:17;;;;;;;3.00;1.53;;;;;;;0.49;100.00;100065.27;5067094;56;1136721;-68
2023/03/12 06:42:25;;;;;;;3.43;1.43;;;;;;;0.57;100.00;100079.66;5067373;56;1136653;-74
2023/03/12 06:47:31;;;;;;;7.03;1.53;;;;;;;0.65;100.00;100083.20;5086775;56;1136857;-67
2023/03/12 06:52:37;;;;;;;7.13;2.17;;;;;;;0.73;100.00;100102.41;5067199;56;1136703;-65
2023/03/12 06:57:43;;;;;;;7.65;2.20;;;;;;;0.77;100.00;100104.78;4997170;57;1136975;-71
2023/03/12 07:02:49;;;;;;;5.63;1.90;;;;;;;0.84;100.00;100107.97;4964847;57;1136838;-66
2023/03/12 07:07:55;;;;;;;3.27;2.08;;;;;;;0.95;100.00;100113.54;4923989;58;1136872;-73
2023/03/12 07:13:00;;;;;;;6.30;1.47;;;;;;;0.93;100.00;100121.41;4977247;57;1136808;-68
2023/03/12 07:18:10;;;;;;;3.00;1.33;;;;;;;1.02;100.00;100128.84;4986832;57;1136788;-68
2023/03/12 07:23:16;;;;;;;2.60;1.10;;;;;;;1.09;100.00;100132.45;5075174;56;1136872;-72
2023/03/12 07:28:23;;;;;;;12.83;1.57;;;;;;;1.08;100.00;100135.51;5038209;56;1137061;-66
2023/03/12 07:33:30;;;;;;;13.93;2.13;;;;;;;0.96;100.00;100135.61;4945770;57;1138857;-70
2023/03/12 07:38:37;;;;;;;3.93;1.90;;;;;;;1.01;100.00;100141.92;5004009;57;1138922;-69
2023/03/12 07:43:43;;;;;;;7.67;2.67;;;;;;;1.05;100.00;100145.63;4985811;56;1136910;-75
2023/03/12 07:48:51;;;;;;;7.72;3.15;;;;;;;1.18;100.00;100139.87;5024733;57;1137127;-76
2023/03/12 07:53:57;;;;;;;3.70;1.50;;;;;;;1.39;100.00;100151.89;5019913;57;1136832;-76
2023/03/12 07:59:03;;;;;;;12.30;1.25;;;;;;;1.51;100.00;100167.45;5049243;56;1136963;-74
2023/03/12 08:04:11;;;;;;;4.87;1.17;;;;;;;1.68;100.00;100161.81;5048873;56;1138881;-77
2023/03/12 08:09:21;;;;;;;4.23;1.97;;;;;;;1.79;100.00;100163.09;5027975;56;1136728;-78
2023/03/12 08:14:30;;;;;;;8.43;1.40;;;;;;;1.97;100.00;100180.48;4981890;57;1136782;-75
2023/03/12 08:19:34;;;;;;;8.33;1.67;;;;;;;1.82;100.00;100175.53;4980722;57;1136800;-75
2023/03/12 08:24:41;;;;;;;4.07;1.43;;;;;;;1.91;100.00;100178.16;5016046;57;1137153;-73
2023/03/12 08:29:47;;;;;;;8.80;1.93;;;;;;;1.99;100.00;100180.77;4980274;57;1136728;-76
2023/03/12 08:34:54;;;;;;;7.67;1.30;;;;;;;1.78;100.00;100187.47;4990847;56;1136698;-74
2023/03/12 08:40:00;;;;;;;3.10;0.63;;;;;;;1.78;100.00;100187.47;4989209;56;1137631;-75
2023/03/12 08:45:08;;;;;;;5.40;1.32;;;;;;;1.93;100.00;100194.12;4978149;57;1136878;-73
2023/03/12 08:50:15;;;;;;;4.27;1.30;;;;;;;2.33;100.00;100202.16;4958800;57;1136854;-75
2023/03/12 08:55:21;;;;;;;7.10;1.30;;;;;;;2.32;100.00;100205.69;4823424;59;1136655;-80
2023/03/12 09:00:29;;;;;;;4.53;1.40;;;;;;;2.32;100.00;100205.69;4842095;58;1136859;-74
2023/03/12 09:05:35;;;;;;;1.60;1.07;;;;;;;2.25;100.00;100234.78;4900739;58;1136780;-78
2023/03/12 09:10:43;;;;;;;6.57;2.17;;;;;;;2.28;100.00;100230.27;4977514;57;1136984;-74
2023/03/12 09:15:50;;;;;;;5.83;1.35;;;;;;;2.28;100.00;100230.27;5011862;57;1136818;-81
2023/03/12 09:20:56;;;;;;;2.53;1.10;;;;;;;2.37;100.00;100232.42;5056916;56;1136871;-75
2023/03/12 09:26:02;;;;;;;9.87;2.80;;;;;;;2.64;100.00;100231.52;5045337;56;1136679;-75
2023/03/12 09:31:08;;;;;;;5.70;1.57;;;;;;;2.64;100.00;100239.35;5003959;56;1136774;-77
2023/03/12 09:36:14;;;;;;;8.70;2.53;;;;;;;2.64;100.00;100238.05;5087314;56;1136796;-77
2023/03/12 09:41:25;;;;;;;4.90;1.92;;;;;;;2.77;100.00;100243.05;5024729;56;1136809;-83
2023/03/12 09:46:38;;;;;;;6.03;1.52;;;;;;;3.20;100.00;100242.20;5058088;56;1136896;-76
2023/03/12 09:51:48;;;;;;;7.93;2.40;;;;;;;3.08;100.00;100239.73;5086247;56;1136577;-83
2023/03/12 09:56:58;;;;;;;11.13;2.63;;;;;;;3.10;100.00;100235.27;5065109;56;1136726;-74
2023/03/12 10:02:14;;;;;;;5.03;3.10;;;;;;;3.36;100.00;100231.79;5055743;56;1138769;-83
2023/03/12 10:07:28;;;;;;;6.87;2.43;;;;;;;3.63;100.00;100228.16;5063987;56;1136717;-80
2023/03/12 10:12:45;;;;;;;;;;;;;;;3.74;100.00;100221.42;5061255;56;1136719;-79
2023/03/12 10:18:15;;;;;;;4.97;1.90;;;;;;;3.99;100.00;100225.30;5092411;56;974164;-75
2023/03/12 10:23:34;;;;;;;9.97;2.87;;;;;;;4.18;100.00;100231.21;5035684;57;1134628;-72
2023/03/12 10:28:48;;;;;;;27.87;17.97;;;;;;;4.42;100.00;100224.61;5081051;56;1136653;-80
2023/03/12 10:34:01;;;;;;;6.50;1.20;;;;;;;4.33;100.00;100232.12;5059059;56;1141070;-79
2023/03/12 10:39:14;;;;;;;1.20;0.95;;;;;;;4.09;99.25;100235.20;5075882;56;1136715;-75
2023/03/12 10:44:24;;;;;;;3.60;1.33;;;;;;;4.04;99.67;100240.30;5096798;56;1134571;-78
2023/03/12 10:49:33;;;;;;;3.10;1.97;;;;;;;3.97;99.65;100235.03;5116607;56;1134847;-80
2023/03/12 10:54:43;;;;;;;5.00;2.40;;;;;;;3.83;100.00;100231.83;5096801;56;1134900;-78
2023/03/12 10:59:50;;;;;;;6.23;3.30;;;;;;;4.24;100.00;100240.05;5069430;56;1136923;-77
2023/03/12 11:04:56;;;;;;;5.77;1.60;;;;;;;4.41;96.57;100246.95;5117252;56;1137135;-82
2023/03/12 11:10:10;;;;;;;2.67;0.70;;;;;;;4.34;98.32;100245.13;5099452;56;1134651;-81
2023/03/12 11:15:31;;;;;;;6.50;1.17;;;;;;;4.52;96.45;100247.17;5117610;56;1134879;-76
2023/03/12 11:20:38;;;;;;;2.30;1.17;;;;;;;4.51;82.15;100262.05;5096283;56;1134750;-76
2023/03/12 11:25:43;;;;;;;4.93;1.13;;;;;;;4.44;78.27;100251.98;5117673;56;1134818;-75
2023/03/12 11:30:53;;;;;;;5.13;2.77;;;;;;;4.63;81.36;100240.00;5082339;56;1134735;-77
2023/03/12 11:36:24;;;;;;;8.63;1.20;;;;;;;4.90;80.27;100239.70;5045353;56;1134629;-77
2023/03/12 11:41:42;;;;;;;8.57;3.57;;;;;;;4.95;78.52;100235.05;5016012;56;1134633;-80
2023/03/12 11:47:25;;;;;;;6.17;1.73;;;;;;;5.06;72.11;100231.32;5107800;55;1134950;-81
2023/03/12 11:53:02;;;;;;;4.73;2.40;;;;;;;5.02;69.54;100237.70;5086529;56;1135227;-81
2023/03/12 11:58:35;;;;;;;6.45;1.72;;;;;;;5.30;71.42;100225.09;4970340;57;1134844;-81
2023/03/12 12:04:16;;;;;;;2.13;1.43;;;;;;;5.55;76.50;100217.41;5032592;55;1134754;-80
2023/03/12 12:09:50;;;;;;;6.30;1.70;;;;;;;5.74;74.44;100209.70;5012128;56;1134717;-81
2023/03/12 12:15:06;;;;;;;3.27;1.10;;;;;;;5.94;73.76;100205.41;5013232;56;1134698;-78
2023/03/12 12:20:45;;;;;;;3.70;2.02;;;;;;;5.97;71.18;100214.37;5018574;56;1134752;-79
2023/03/12 12:25:56;;;;;;;5.50;1.53;;;;;;;6.19;71.68;100213.39;4969936;57;1134837;-80
2023/03/12 12:31:24;;;;;;;3.22;0.93;;;;;;;6.40;70.79;100212.48;5095567;56;1134551;-80
2023/03/12 12:36:34;;;;;;;4.90;1.67;;;;;;;6.28;67.73;100214.09;5092715;56;1134575;-82
2023/03/12 12:41:50;;;;;;;15.05;4.83;;;;;;;6.23;71.74;100210.09;5051543;57;1134663;-77
2023/03/12 12:47:01;;;;;;;7.55;3.40;;;;;;;6.29;74.84;100209.21;5036261;57;1136859;-76
2023/03/12 12:52:14;;;;;;;4.75;1.62;;;;;;;6.37;77.95;100190.81;5102024;56;1134708;-83
2023/03/12 12:57:27;;;;;;;;;;;;;;;6.45;73.85;100215.62;5119814;56;1135139;-78
2023/03/12 13:02:36;;;;;;;4.17;1.50;;;;;;;6.24;73.70;100213.94;5152383;56;972144;-75
2023/03/12 13:07:42;;;;;;;3.77;1.30;;;;;;;6.17;74.79;100206.08;5086871;56;1132609;-82
2023/03/12 13:12:55;;;;;;;4.17;1.53;;;;;;;6.19;74.19;100198.10;4982295;57;1134653;-81
2023/03/12 13:18:04;;;;;;;3.07;1.20;;;;;;;6.28;73.45;100203.59;4990232;57;1134698;-82
2023/03/12 13:23:40;;;;;;;3.00;1.40;;;;;;;6.24;69.78;100207.84;4992164;56;1134713;-77
2023/03/12 13:28:59;;;;;;;6.47;2.00;;;;;;;6.31;73.24;100217.84;4991107;56;1134748;-81
2023/03/12 13:34:23;;;;;;;18.17;7.77;;;;;;;6.40;73.62;100217.73;4946369;57;1134781;-80
2023/03/12 13:39:35;;;;;;;;;;;;;;;6.41;74.57;100204.97;4931003;57;1136951;-74
2023/03/12 13:44:41;;;;;;;9.17;4.53;;;;;;;6.29;72.49;100200.02;4979355;57;971909;-79
2023/03/12 13:50:00;;;;;;;3.03;1.47;;;;;;;6.09;73.04;100215.40;4985303;56;1132616;-77
2023/03/12 13:55:22;;;;;;;6.60;1.70;;;;;;;5.89;73.59;100212.72;4978253;57;1134692;-80
2023/03/12 14:00:32;;;;;;;5.43;1.60;;;;;;;5.68;72.59;100219.26;4915890;58;1134665;-80
2023/03/12 14:06:06;;;;;;;5.67;1.73;;;;;;;5.60;76.70;100219.28;5012912;56;1134805;-78
2023/03/12 14:12:07;;;;;;;7.20;2.10;;;;;;;5.55;73.75;100229.67;4934802;57;1134786;-77
2023/03/12 14:17:28;;;;;;;8.63;2.12;;;;;;;5.48;74.80;100227.06;4965969;56;1134690;-75
2023/03/12 14:22:38;;;;;;;11.13;1.80;;;;;;;5.45;75.51;100212.83;5088415;56;1134855;-81
2023/03/12 14:27:46;;;;;;;4.47;1.53;;;;;;;5.36;77.51;100229.10;5033040;56;1136692;-81
2023/03/12 14:32:58;;;;;;;5.73;2.70;;;;;;;5.23;74.65;100219.36;5014794;56;1134590;-76
2023/03/12 14:38:13;;;;;;;4.80;2.60;;;;;;;5.22;77.18;100217.67;5014648;56;1134585;-77
2023/03/12 14:43:26;;;;;;;6.12;2.35;;;;;;;5.20;77.17;100214.30;5024252;56;1134731;-84
2023/03/12 14:48:37;;;;;;;11.28;3.65;;;;;;;5.20;78.55;100212.14;5081764;55;1135265;-82
2023/03/12 14:53:42;;;;;;;6.53;3.30;;;;;;;5.24;79.61;100211.88;5119376;56;1153264;-73
2023/03/12 14:58:50;;;;;;;14.37;6.90;;;;;;;5.17;80.59;100200.09;5153465;56;1134687;-72
2023/03/12 15:04:02;;;;;;;19.27;10.87;;;;;;;5.16;79.77;100191.00;5220450;56;1136809;-83
2023/03/12 15:09:14;;;;;;;20.92;9.28;;;;;;;5.07;79.40;100188.45;5176916;56;1138829;-74
2023/03/12 15:14:20;;;;;;;3.97;1.70;;;;;;;4.99;78.36;100182.84;5128535;56;1137087;-83
2023/03/12 15:19:38;;;;;;;5.67;2.10;;;;;;;4.87;77.40;100190.97;5184037;56;1134809;-80
2023/03/12 15:24:44;;;;;;;14.03;5.87;;;;;;;4.82;78.00;100188.23;5161894;56;1134687;-81
2023/03/12 15:29:50;;;;;;;9.50;3.00;;;;;;;4.83;79.80;100197.78;5078947;57;1136958;-76
2023/03/12 15:34:56;;;;;;;19.03;4.70;;;;;;;4.82;79.74;100200.03;5126543;56;1134956;-79
2023/03/12 15:40:07;;;;;;;97.43;19.27;;;;;;;4.78;79.97;100208.53;5154249;56;1136938;-75
2023/03/12 15:45:38;;;;;;;209.13;35.60;;;;;;;4.77;80.14;100199.45;5116186;55;1139249;-78
2023/03/12 15:50:45;;;;;;;111.90;31.53;;;;;;;4.74;79.96;100175.58;5172400;55;1145382;-81
2023/03/12 15:56:08;;;;;;;38.30;8.95;;;;;;;4.75;80.56;100172.02;5012880;57;1141183;-83
2023/03/12 16:01:16;;;;;;;87.80;21.73;;;;;;;4.74;81.11;100178.20;5151521;55;1136747;-85
2023/03/12 16:06:28;;;;;;;36.27;7.27;;;;;;;4.68;81.09;100175.11;5096516;56;1138839;-80
2023/03/12 16:11:37;;;;;;;68.90;32.57;;;;;;;4.71;80.59;100176.25;5139833;55;1136691;-80
2023/03/12 16:16:43;;;;;;;57.37;26.07;;;;;;;4.63;81.70;100160.97;5056821;56;1138999;-79
2023/03/12 16:21:49;;;;;;;50.47;20.20;;;;;;;4.60;83.59;100158.05;5138931;55;1138760;-78
2023/03/12 16:26:58;;;;;;;51.73;15.32;;;;;;;4.56;83.23;100153.11;5116616;56;1138808;-83
2023/03/12 16:32:17;;;;;;;33.10;10.23;;;;;;;4.50;83.51;100160.84;5062560;55;1138779;-78
2023/03/12 16:37:24;;;;;;;26.67;9.60;;;;;;;4.46;83.82;100157.17;5097503;56;1138822;-84
2023/03/12 16:42:30;;;;;;;84.40;20.43;;;;;;;4.40;83.66;100151.00;5117209;56;1136698;-81
2023/03/12 16:47:36;;;;;;;47.47;24.00;;;;;;;4.37;84.09;100147.25;5096931;56;1138752;-83
2023/03/12 16:52:45;;;;;;;44.15;17.98;;;;;;;4.36;84.57;100149.02;5096962;56;1138862;-75
2023/03/12 16:57:59;;;;;;;39.67;19.05;;;;;;;4.35;84.68;100156.50;5117343;56;1139096;-79
2023/03/12 17:03:07;;;;;;;33.37;11.83;;;;;;;4.33;85.06;100171.91;5108212;56;1138914;-83
2023/03/12 17:08:14;;;;;;;58.40;24.37;;;;;;;4.32;85.90;100175.45;5066946;56;1138955;-77
2023/03/12 17:13:25;;;;;;;22.67;9.93;;;;;;;4.32;86.09;100165.83;5086607;56;1138842;-78
2023/03/12 17:18:31;;;;;;;64.87;26.93;;;;;;;4.35;85.89;100167.44;5066878;56;1136645;-75
2023/03/12 17:23:37;;;;;;;52.87;22.97;;;;;;;4.33;86.63;100166.21;5151231;55;1138888;-83
2023/03/12 17:28:43;;;;;;;71.47;32.07;;;;;;;4.37;87.59;100162.49;5172679;55;1138795;-80
2023/03/12 17:33:49;;;;;;;201.70;62.10;;;;;;;4.41;88.02;100162.70;5083499;55;1138821;-81
2023/03/12 17:38:55;;;;;;;192.07;83.05;;;;;;;4.38;87.74;100164.65;5066754;56;1140838;-79
2023/03/12 17:44:02;;;;;;;66.33;32.83;;;;;;;4.36;88.35;100156.88;5066949;56;1141083;-85
2023/03/12 17:49:08;;;;;;;24.73;11.40;;;;;;;4.37;88.98;100154.64;5080051;56;1138987;-80
2023/03/12 17:54:14;;;;;;;18.30;9.97;;;;;;;4.38;88.75;100151.09;5066860;56;1138843;-80
2023/03/12 17:59:20;;;;;;;25.70;12.57;;;;;;;4.37;88.61;100157.72;5067592;56;1136946;-78
2023/03/12 18:04:26;;;;;;;34.93;19.63;;;;;;;4.38;88.97;100163.34;5086934;56;1138935;-84
2023/03/12 18:09:32;;;;;;;66.13;28.60;;;;;;;4.37;89.61;100167.73;5072774;56;1138926;-83
2023/03/12 18:14:38;;;;;;;61.10;25.10;;;;;;;4.38;89.65;100173.34;5115608;55;1138896;-78
2023/03/12 18:19:44;;;;;;;85.00;38.20;;;;;;;4.39;90.08;100168.95;5110494;55;1138943;-81
2023/03/12 18:24:51;;;;;;;197.78;80.60;;;;;;;4.41;90.39;100160.08;5036662;57;1138829;-77
2023/03/12 18:29:57;;;;;;;364.73;137.40;;;;;;;4.43;90.62;100138.55;5042035;57;1140913;-79
2023/03/12 18:35:03;;;;;;;154.25;53.58;;;;;;;4.41;90.31;100135.21;5009048;56;1143134;-77
2023/03/12 18:40:10;;;;;;;110.20;44.23;;;;;;;4.35;89.77;100130.32;4997497;56;1141304;-77
2023/03/12 18:45:16;;;;;;;106.83;44.07;;;;;;;4.30;90.28;100121.87;5006401;57;1141098;-73
2023/03/12 18:50:22;;;;;;;383.85;163.82;;;;;;;4.27;91.18;100134.33;4955068;56;1140859;-69
2023/03/12 18:55:29;;;;;;;54.67;20.23;;;;;;;4.25;91.55;100131.80;4986496;56;1143363;-65
2023/03/12 19:00:34;;;;;;;140.70;44.57;;;;;;;4.23;91.67;100129.73;5032510;56;1138830;-72
2023/03/12 19:05:41;;;;;;;244.50;70.70;;;;;;;4.22;92.32;100142.44;5001387;56;1140907;-68
2023/03/12 19:10:47;;;;;;;161.73;48.75;;;;;;;4.19;92.62;100142.60;4988055;56;1140997;-71
2023/03/12 19:16:00;;;;;;;200.00;56.87;;;;;;;4.20;92.79;100133.36;5032926;56;1141112;-68
2023/03/12 19:21:10;;;;;;;83.47;27.00;;;;;;;4.21;92.93;100126.34;5024131;56;1141041;-66
2023/03/12 19:26:16;;;;;;;134.03;46.90;;;;;;;4.19;93.08;100108.11;5030394;56;1140759;-68
2023/03/12 19:31:24;;;;;;;65.57;26.75;;;;;;;4.17;93.13;100106.05;5028859;56;1141040;-79
2023/03/12 19:36:29;;;;;;;77.23;29.07;;;;;;;4.14;93.20;100099.67;4952095;57;1138924;-77
2023/03/12 19:41:35;;;;;;;40.23;16.20;;;;;;;4.13;93.24;100082.28;4847846;58;1139022;-76
2023/03/12 19:46:42;;;;;;;37.53;14.03;;;;;;;4.09;93.46;100084.73;5090188;56;1138864;-76
2023/03/12 19:51:47;;;;;;;21.47;9.50;;;;;;;4.08;93.58;100080.88;5055490;56;1138962;-73
2023/03/12 19:56:53;;;;;;;46.07;15.97;;;;;;;4.03;93.51;100063.29;5121645;55;1136793;-76
2023/03/12 20:02:00;;;;;;;49.23;19.65;;;;;;;4.00;94.24;100068.69;5111302;55;1138715;-75
2023/03/12 20:07:06;;;;;;;49.43;19.40;;;;;;;3.98;94.54;100067.94;5057247;56;1138810;-74
2023/03/12 20:12:12;;;;;;;30.20;11.87;;;;;;;3.96;94.79;100067.21;5011648;56;1139237;-79
2023/03/12 20:17:18;;;;;;;51.20;22.07;;;;;;;3.92;94.68;100059.99;4960301;57;1138985;-82
2023/03/12 20:22:25;;;;;;;29.77;11.23;;;;;;;3.91;94.91;100059.61;4939231;57;1139031;-81
2023/03/12 20:27:32;;;;;;;20.53;13.27;;;;;;;3.93;95.42;100060.38;5009426;57;1138828;-75
2023/03/12 20:32:38;;;;;;;15.70;9.53;;;;;;;3.89;95.03;100057.55;4907753;58;1138855;-76
2023/03/12 20:37:43;;;;;;;21.47;11.70;;;;;;;3.86;95.35;100049.41;4890761;58;1136699;-76
2023/03/12 20:42:49;;;;;;;32.73;16.13;;;;;;;3.84;96.02;100045.19;4894992;58;1139185;-80
2023/03/12 20:47:56;;;;;;;24.72;10.82;;;;;;;3.82;96.29;100049.20;4913208;58;1138886;-78
2023/03/12 20:53:02;;;;;;;39.20;15.00;;;;;;;3.83;96.68;100043.03;4897873;57;1138890;-79
2023/03/12 20:58:08;;;;;;;32.33;12.80;;;;;;;3.78;96.57;100019.41;5028808;57;1139067;-77
2023/03/12 21:03:16;;;;;;;34.67;13.53;;;;;;;3.78;97.07;100020.71;4927777;58;1138978;-76
2023/03/12 21:08:23;;;;;;;101.97;26.27;;;;;;;3.80;97.22;100046.31;4942930;57;1138865;-82
2023/03/12 21:13:29;;;;;;;304.93;82.27;;;;;;;3.83;97.79;100044.80;4965018;58;1141030;-81
2023/03/12 21:18:35;;;;;;;111.50;31.48;;;;;;;3.80;97.23;100041.92;4916786;58;1141099;-79
2023/03/12 21:23:41;;;;;;;121.67;34.83;;;;;;;3.78;97.28;100039.02;4872468;59;1140874;-77
2023/03/12 21:28:47;;;;;;;113.63;34.33;;;;;;;3.74;96.43;100010.88;4925085;59;1140879;-76
2023/03/12 21:33:56;;;;;;;65.47;20.30;;;;;;;3.70;96.69;100005.44;5047126;57;1141149;-81
2023/03/12 21:39:02;;;;;;;25.20;9.03;;;;;;;3.69;96.52;100004.22;5248559;55;1138945;-80
2023/03/12 21:44:08;;;;;;;12.95;6.28;;;;;;;3.56;95.73;99993.63;5197044;55;1136775;-80
2023/03/12 21:49:16;;;;;;;16.57;5.80;;;;;;;3.54;96.71;99998.94;5215104;55;1134774;-77
2023/03/12 21:54:21;;;;;;;16.00;5.83;;;;;;;3.45;100.00;99992.94;5186153;55;1134749;-78
2023/03/12 21:59:27;;;;;;;11.90;5.87;;;;;;;3.29;100.00;100004.34;5096360;56;1136953;-80
2023/03/12 22:04:33;;;;;;;14.03;6.00;;;;;;;3.12;100.00;99996.13;5017659;56;1138973;-78
2023/03/12 22:09:38;;;;;;;13.30;5.67;;;;;;;2.99;100.00;99985.98;5090685;56;1136861;-77
2023/03/12 22:14:44;;;;;;;14.77;5.50;;;;;;;2.94;100.00;99977.54;5204557;56;1136970;-78
2023/03/12 22:19:51;;;;;;;10.10;4.93;;;;;;;2.88;100.00;99978.74;4927893;58;1136978;-81
2023/03/12 22:24:56;;;;;;;12.33;4.70;;;;;;;2.83;100.00;99971.14;5035678;57;1136734;-79
2023/03/12 22:30:02;;;;;;;21.17;8.57;;;;;;;2.76;100.00;99971.09;5163480;55;1136943;-77
2023/03/12 22:35:08;;;;;;;30.83;12.13;;;;;;;2.75;100.00;99963.36;5216715;56;1136977;-80
2023/03/12 22:40:14;;;;;;;17.13;6.33;;;;;;;2.78;100.00;99963.17;5196747;56;1138871;-78
2023/03/12 22:45:20;;;;;;;13.27;6.47;;;;;;;2.81;100.00;99955.17;5197012;56;1137087;-81
2023/03/12 22:50:26;;;;;;;19.40;7.80;;;;;;;2.86;100.00;99957.08;5158173;55;1136961;-80
2023/03/12 22:55:32;;;;;;;12.30;6.40;;;;;;;2.82;100.00;99950.34;5021214;56;1136812;-79
2023/03/12 23:00:38;;;;;;;17.73;6.80;;;;;;;2.76;100.00;99937.60;5008274;56;1236950;-79
2023/03/12 23:05:44;;;;;;;12.17;4.87;;;;;;;2.71;100.00;99916.98;5029814;56;1136797;-85
2023/03/12 23:10:59;;;;;;;16.77;7.47;;;;;;;2.64;100.00;99913.48;5033287;56;1136713;-79
2023/03/12 23:16:15;;;;;;;11.68;5.20;;;;;;;2.60;100.00;99901.05;5105217;56;1136723;-81
2023/03/12 23:21:23;;;;;;;13.07;7.13;;;;;;;2.62;100.00;99894.44;5058032;56;1137238;-79
2023/03/12 23:26:29;;;;;;;15.33;6.80;;;;;;;2.60;100.00;99898.44;4989769;57;1137385;-78